createdAt,value
2019-05-25T00:02:24.462Z,20.25
2019-05-25T00:04:54.856Z,20.37
2019-05-25T00:07:25.293Z,21.55
2019-05-25T00:09:55.667Z,21.10
2019-05-25T00:12:26.127Z,19.65
2019-05-25T00:14:56.491Z,20.12
2019-05-25T00:17:26.938Z,20.23
2019-05-25T00:19:57.343Z,20.62
2019-05-25T00:22:30.554Z,21.25
2019-05-25T00:25:00.981Z,20.70
2019-05-25T00:27:31.438Z,20.95
2019-05-25T00:30:02.049Z,22.07
2019-05-25T00:32:36.259Z,22.62
2019-05-25T00:35:07.891Z,21.90
2019-05-25T00:37:39.546Z,23.00
2019-05-25T00:40:10.681Z,21.60
2019-05-25T00:42:42.529Z,23.00
2019-05-25T00:45:13.546Z,22.95
2019-05-25T00:47:46.855Z,24.15
2019-05-25T00:50:17.363Z,23.15
2019-05-25T00:52:48.387Z,22.35
2019-05-25T00:55:24.009Z,23.38
2019-05-25T00:57:54.865Z,23.85
2019-05-25T01:00:28.596Z,22.37
2019-05-25T01:03:03.104Z,23.50
2019-05-25T01:05:35.112Z,23.38
2019-05-25T01:08:05.481Z,24.45
2019-05-25T01:10:35.911Z,23.95
2019-05-25T01:13:07.855Z,22.65
2019-05-25T01:15:38.266Z,23.55
2019-05-25T01:18:08.697Z,23.05
2019-05-25T01:20:40.251Z,24.12
2019-05-25T01:23:11.771Z,25.45
2019-05-25T01:25:42.971Z,23.90
2019-05-25T01:28:13.389Z,24.63
2019-05-25T01:30:43.758Z,24.65
2019-05-25T01:33:14.217Z,25.35
2019-05-25T01:35:44.644Z,24.15
2019-05-25T01:38:15.069Z,24.77
2019-05-25T01:40:45.450Z,25.02
2019-05-25T01:43:15.881Z,25.20
2019-05-25T01:45:46.236Z,26.68
2019-05-25T01:48:17.650Z,25.00
2019-05-25T01:50:48.009Z,26.12
2019-05-25T01:53:18.477Z,25.17
2019-05-25T01:55:50.161Z,25.82
2019-05-25T01:58:20.596Z,25.43
2019-05-25T02:00:50.977Z,24.87
2019-05-25T02:03:21.439Z,25.65
2019-05-25T02:05:51.900Z,25.88
2019-05-25T02:08:23.396Z,24.63
2019-05-25T02:10:53.748Z,25.82
2019-05-25T02:13:26.059Z,24.98
2019-05-25T02:18:28.367Z,25.65
2019-05-25T02:21:01.010Z,25.40
2019-05-25T02:23:32.264Z,25.35
2019-05-25T02:26:02.821Z,24.80
2019-05-25T02:28:33.206Z,25.92
2019-05-25T02:31:03.641Z,28.77
2019-05-25T02:33:34.027Z,29.32
2019-05-25T02:36:04.667Z,29.75
2019-05-25T02:38:35.104Z,29.92
2019-05-25T02:41:05.557Z,30.32
2019-05-25T02:43:35.985Z,29.72
2019-05-25T02:46:06.420Z,32.60
2019-05-25T02:48:36.832Z,29.50
2019-05-25T02:51:07.269Z,29.85
2019-05-25T02:53:39.145Z,28.90
2019-05-25T02:56:13.509Z,29.18
2019-05-25T02:58:45.752Z,30.40
2019-05-25T03:03:45.517Z,31.90
2019-05-25T03:06:17.235Z,30.90
2019-05-25T03:08:49.208Z,30.55
2019-05-25T03:11:21.668Z,32.50
2019-05-25T03:16:24.088Z,32.35
2019-05-25T03:18:56.408Z,30.65
2019-05-25T03:21:29.995Z,29.48
2019-05-25T03:24:00.403Z,29.95
2019-05-25T03:26:32.086Z,28.95
2019-05-25T03:29:07.801Z,29.50
2019-05-25T03:31:38.176Z,31.10
2019-05-25T03:34:08.612Z,30.50
2019-05-25T03:36:43.134Z,31.62
2019-05-25T03:39:16.786Z,31.90
2019-05-25T03:44:18.335Z,30.88
2019-05-25T03:46:52.058Z,34.73
2019-05-25T03:49:25.550Z,31.55
2019-05-25T03:52:02.275Z,33.48
2019-05-25T03:54:35.149Z,36.58
2019-05-25T03:57:05.616Z,37.58
2019-05-25T03:59:36.029Z,35.17
2019-05-25T04:02:06.404Z,35.10
2019-05-25T04:04:37.880Z,34.38
2019-05-25T04:07:08.267Z,36.42
2019-05-25T04:09:38.671Z,35.58
2019-05-25T04:12:09.031Z,35.33
2019-05-25T04:14:40.903Z,35.83
2019-05-25T04:17:11.288Z,37.42
2019-05-25T04:19:42.807Z,38.23
2019-05-25T04:22:14.614Z,37.42
2019-05-25T04:24:45.551Z,37.78
2019-05-25T04:27:15.929Z,36.68
2019-05-25T04:29:48.430Z,37.08
2019-05-25T04:32:20.400Z,37.05
2019-05-25T04:34:54.836Z,35.92
2019-05-25T04:37:27.425Z,36.20
2019-05-25T04:39:57.849Z,35.98
2019-05-25T04:42:28.224Z,36.28
2019-05-25T04:45:00.139Z,35.88
2019-05-25T04:47:35.605Z,36.10
2019-05-25T04:50:08.860Z,36.28
2019-05-25T04:52:41.322Z,37.93
2019-05-25T04:55:11.569Z,37.95
2019-05-25T04:57:42.016Z,39.38
2019-05-25T05:00:13.052Z,39.67
2019-05-25T05:02:43.474Z,43.63
2019-05-25T05:05:14.008Z,39.15
2019-05-25T05:07:44.416Z,37.25
2019-05-25T05:10:16.175Z,35.48
2019-05-25T05:12:46.535Z,35.10
2019-05-25T05:15:18.107Z,31.87
2019-05-25T05:17:51.271Z,31.87
2019-05-25T05:20:24.506Z,30.15
2019-05-25T05:22:55.923Z,29.55
2019-05-25T05:25:30.846Z,30.37
2019-05-25T05:28:02.435Z,29.00
2019-05-25T05:30:34.454Z,28.73
2019-05-25T05:33:08.074Z,27.87
2019-05-25T05:38:09.924Z,28.83
2019-05-25T05:40:41.099Z,31.52
2019-05-25T05:43:11.835Z,31.68
2019-05-25T05:45:44.505Z,33.13
2019-05-25T05:48:17.809Z,32.33
2019-05-25T05:50:50.688Z,33.00
2019-05-25T05:53:26.548Z,33.73
2019-05-25T05:55:56.918Z,31.93
2019-05-25T05:58:27.340Z,32.30
2019-05-25T06:00:57.783Z,31.20
2019-05-25T06:03:28.219Z,29.67
2019-05-25T06:05:58.660Z,29.50
2019-05-25T06:08:29.069Z,30.62
2019-05-25T06:10:59.490Z,32.15
2019-05-25T06:13:29.873Z,32.23
2019-05-25T06:16:00.319Z,27.95
2019-05-25T06:18:30.745Z,28.77
2019-05-25T06:21:01.185Z,27.02
2019-05-25T06:23:31.532Z,28.00
2019-05-25T06:26:02.693Z,28.55
2019-05-25T06:28:33.374Z,29.55
2019-05-25T06:31:03.823Z,29.82
2019-05-25T06:33:35.795Z,29.37
2019-05-25T06:36:07.914Z,29.40
2019-05-25T06:38:39.477Z,29.90
2019-05-25T06:41:11.416Z,28.23
2019-05-25T06:43:41.859Z,29.07
2019-05-25T06:46:12.288Z,28.32
2019-05-25T06:48:42.704Z,26.97
2019-05-25T06:51:13.138Z,27.17
2019-05-25T06:53:43.513Z,23.77
2019-05-25T06:56:13.936Z,17.48
2019-05-25T06:58:45.519Z,16.77
2019-05-25T07:01:15.947Z,15.95
2019-05-25T07:03:47.302Z,12.77
2019-05-25T07:06:17.729Z,12.45
2019-05-25T07:08:48.166Z,11.30
2019-05-25T07:11:18.578Z,11.12
2019-05-25T07:13:48.943Z,12.58
2019-05-25T07:16:19.378Z,11.70
2019-05-25T07:18:49.812Z,11.68
2019-05-25T07:21:20.188Z,11.57
2019-05-25T07:23:50.600Z,11.65
2019-05-25T07:26:21.039Z,10.55
2019-05-25T07:28:51.392Z,9.80
2019-05-25T07:31:21.822Z,9.35
2019-05-25T07:33:52.194Z,8.65
2019-05-25T07:36:22.608Z,7.70
2019-05-25T07:38:53.355Z,7.83
2019-05-25T07:41:23.888Z,6.58
2019-05-25T07:43:54.315Z,6.05
2019-05-25T07:46:24.743Z,5.87
2019-05-25T07:48:55.150Z,4.12
2019-05-25T07:51:26.565Z,4.10
2019-05-25T07:53:58.298Z,3.10
2019-05-25T07:56:31.565Z,2.52
2019-05-25T07:59:03.721Z,2.90
2019-05-25T08:04:05.423Z,2.77
2019-05-25T08:06:36.516Z,2.83
2019-05-25T08:09:09.705Z,2.17
2019-05-25T08:11:40.125Z,2.25
2019-05-25T08:14:10.824Z,2.10
2019-05-25T08:16:41.227Z,3.30
2019-05-25T08:19:11.835Z,2.05
2019-05-25T08:21:42.265Z,2.00
2019-05-25T08:24:12.945Z,2.55
2019-05-25T08:26:43.331Z,2.95
2019-05-25T08:29:13.756Z,2.37
2019-05-25T08:31:45.223Z,2.10
2019-05-25T08:34:15.670Z,2.42
2019-05-25T08:36:46.072Z,3.83
2019-05-25T08:39:16.444Z,1.80
2019-05-25T08:41:46.850Z,2.10
2019-05-25T08:44:17.204Z,1.90
2019-05-25T08:46:47.606Z,2.20
2019-05-25T08:49:17.970Z,2.50
2019-05-25T08:51:48.395Z,3.85
2019-05-25T08:54:18.741Z,1.85
2019-05-25T08:56:49.169Z,1.90
2019-05-25T08:59:19.583Z,2.22
2019-05-25T09:01:50.178Z,2.52
2019-05-25T09:04:20.825Z,3.60
2019-05-25T09:06:51.193Z,4.70
2019-05-25T09:09:22.943Z,3.72
2019-05-25T09:11:53.378Z,3.22
2019-05-25T09:14:23.793Z,3.67
2019-05-25T09:16:54.146Z,2.92
2019-05-25T09:19:24.562Z,3.15
2019-05-25T09:22:02.399Z,2.52
2019-05-25T09:24:26.889Z,2.95
2019-05-25T09:26:58.757Z,3.00
2019-05-25T09:29:29.124Z,3.37
2019-05-25T09:31:59.543Z,3.00
2019-05-25T09:34:29.890Z,3.20
2019-05-25T09:37:00.340Z,2.85
2019-05-25T09:39:30.676Z,2.83
2019-05-25T09:42:01.122Z,3.30
2019-05-25T09:44:31.477Z,2.80
2019-05-25T09:47:01.894Z,2.92
2019-05-25T09:49:32.242Z,2.83
2019-05-25T09:52:03.592Z,2.92
2019-05-25T09:54:34.013Z,3.72
2019-05-25T09:57:04.511Z,4.83
2019-05-25T09:59:34.900Z,3.10
2019-05-25T10:02:05.469Z,4.22
2019-05-25T10:04:35.953Z,2.70
2019-05-25T10:07:06.583Z,2.60
2019-05-25T10:09:40.090Z,2.42
2019-05-25T10:12:09.046Z,2.52
2019-05-25T10:14:39.448Z,3.58
2019-05-25T10:17:09.860Z,3.90
2019-05-25T10:19:41.458Z,2.90
2019-05-25T10:22:14.084Z,3.02
2019-05-25T10:24:45.996Z,2.63
2019-05-25T10:27:18.053Z,3.12
2019-05-25T10:29:49.557Z,2.80
2019-05-25T10:32:19.971Z,5.97
2019-05-25T10:34:51.156Z,5.55
2019-05-25T10:37:21.655Z,7.33
2019-05-25T10:39:52.036Z,6.70
2019-05-25T10:42:22.453Z,6.75
2019-05-25T10:44:52.816Z,5.85
2019-05-25T10:47:23.225Z,4.05
2019-05-25T10:49:53.575Z,2.50
2019-05-25T10:52:23.990Z,3.40
2019-05-25T10:54:54.362Z,3.20
2019-05-25T10:57:24.933Z,3.52
2019-05-25T10:59:55.274Z,3.45
2019-05-25T11:02:25.704Z,3.55
2019-05-25T11:04:57.671Z,3.72
2019-05-25T11:07:28.092Z,3.65
2019-05-25T11:09:58.506Z,3.80
2019-05-25T11:12:28.846Z,4.42
2019-05-25T11:14:59.274Z,4.85
2019-05-25T11:17:30.440Z,5.65
2019-05-25T11:20:04.495Z,5.42
2019-05-25T11:22:34.924Z,6.33
2019-05-25T11:25:09.761Z,6.65
2019-05-25T11:27:41.428Z,6.97
2019-05-25T11:30:13.546Z,6.62
2019-05-25T11:32:44.566Z,7.37
2019-05-25T11:35:17.141Z,7.00
2019-05-25T11:37:47.915Z,6.35
2019-05-25T11:40:19.861Z,6.45
2019-05-25T11:42:50.273Z,6.92
2019-05-25T11:45:20.939Z,7.47
2019-05-25T11:47:51.355Z,7.62
2019-05-25T11:50:22.095Z,7.15
2019-05-25T11:52:52.709Z,7.83
2019-05-25T11:55:23.665Z,7.87
2019-05-25T11:57:54.022Z,8.38
2019-05-25T12:00:25.921Z,11.45
2019-05-25T12:05:27.254Z,13.90
2019-05-25T12:08:01.174Z,14.47
2019-05-25T12:10:31.982Z,13.95
2019-05-25T12:13:05.425Z,17.95
2019-05-25T12:15:35.884Z,16.37
2019-05-25T12:18:06.459Z,15.65
2019-05-25T12:20:39.264Z,8.28
2019-05-25T12:23:11.061Z,7.25
2019-05-25T12:25:43.022Z,7.47
2019-05-25T12:28:13.377Z,8.10
2019-05-25T12:30:43.804Z,6.42
2019-05-25T12:33:14.168Z,7.65
2019-05-25T12:35:45.264Z,5.72
2019-05-25T12:38:15.993Z,6.60
2019-05-25T12:40:53.527Z,8.03
2019-05-25T12:43:22.020Z,7.67
2019-05-25T12:45:53.625Z,10.70
2019-05-25T12:48:25.491Z,14.23
2019-05-25T12:50:57.188Z,14.13
2019-05-25T12:53:27.614Z,17.00
2019-05-25T12:55:59.566Z,18.27
2019-05-25T12:58:32.835Z,17.70
2019-05-25T13:01:05.525Z,17.27
2019-05-25T13:03:37.009Z,18.23
2019-05-25T13:06:07.431Z,18.17
2019-05-25T13:08:37.811Z,16.10
2019-05-25T13:11:09.652Z,15.78
2019-05-25T13:13:41.774Z,14.45
2019-05-25T13:16:12.238Z,13.93
2019-05-25T13:18:44.188Z,13.62
2019-05-25T13:21:14.566Z,14.55
2019-05-25T13:23:46.539Z,16.00
2019-05-25T13:26:18.491Z,18.05
2019-05-25T13:28:51.209Z,17.57
2019-05-25T13:31:24.687Z,18.25
2019-05-25T13:33:56.130Z,17.15
2019-05-25T13:36:27.913Z,17.23
2019-05-25T13:39:04.329Z,15.45
2019-05-25T13:41:37.316Z,17.52
2019-05-25T13:44:12.306Z,17.27
2019-05-25T13:46:43.391Z,18.35
2019-05-25T13:49:18.452Z,17.62
2019-05-25T13:51:48.877Z,17.32
2019-05-25T13:54:22.235Z,16.80
2019-05-25T13:56:57.554Z,19.80
2019-05-25T13:59:25.850Z,17.67
2019-05-25T14:01:56.311Z,20.43
2019-05-25T14:04:27.918Z,18.30
2019-05-25T14:06:59.581Z,19.02
2019-05-25T14:09:31.957Z,17.90
2019-05-25T14:12:04.058Z,14.75
2019-05-25T14:14:35.386Z,16.87
2019-05-25T14:17:05.973Z,16.73
2019-05-25T14:19:41.297Z,18.70
2019-05-25T14:22:10.970Z,17.60
2019-05-25T14:24:41.556Z,12.03
2019-05-25T14:27:12.057Z,16.12
2019-05-25T14:29:42.480Z,14.78
2019-05-25T14:32:12.863Z,13.18
2019-05-25T14:34:43.280Z,13.05
2019-05-25T14:37:14.725Z,13.83
2019-05-25T14:39:47.844Z,13.35
2019-05-25T14:42:18.288Z,13.75
2019-05-25T14:44:49.639Z,14.15
2019-05-25T14:47:20.070Z,14.50
2019-05-25T14:49:50.500Z,16.80
2019-05-25T14:52:21.029Z,15.58
2019-05-25T14:54:51.409Z,14.35
2019-05-25T14:57:22.815Z,13.23
2019-05-25T14:59:53.189Z,10.85
2019-05-25T15:02:23.635Z,10.32
2019-05-25T15:04:54.049Z,11.03
2019-05-25T15:07:24.488Z,11.15
2019-05-25T15:09:54.931Z,12.80
2019-05-25T15:12:25.321Z,11.48
2019-05-25T15:14:57.357Z,13.32
2019-05-25T15:17:27.800Z,15.15
2019-05-25T15:19:58.174Z,16.40
2019-05-25T15:22:29.011Z,17.23
2019-05-25T15:24:59.369Z,15.95
2019-05-25T15:27:29.828Z,15.20
2019-05-25T15:30:00.195Z,14.28
2019-05-25T15:32:30.724Z,16.10
2019-05-25T15:35:02.001Z,17.27
2019-05-25T15:37:32.461Z,18.45
2019-05-25T15:40:02.992Z,18.75
2019-05-25T15:42:33.450Z,18.57
2019-05-25T15:45:04.589Z,18.90
2019-05-25T15:50:08.478Z,17.55
2019-05-25T15:52:40.006Z,19.23
2019-05-25T15:55:11.644Z,16.40
2019-05-25T15:57:42.060Z,15.55
2019-05-25T16:00:13.973Z,16.50
2019-05-25T16:02:44.498Z,16.62
2019-05-25T16:05:17.239Z,16.75
2019-05-25T16:07:50.609Z,16.55
2019-05-25T16:10:22.738Z,17.52
2019-05-25T16:12:53.178Z,16.35
2019-05-25T16:15:29.713Z,15.50
2019-05-25T16:18:00.117Z,16.52
2019-05-25T16:20:30.498Z,14.38
2019-05-25T16:23:00.918Z,13.72
2019-05-25T16:25:31.806Z,12.55
2019-05-25T16:28:02.242Z,12.25
2019-05-25T16:30:32.749Z,12.15
2019-05-25T16:33:12.818Z,12.33
2019-05-25T16:35:35.178Z,11.53
2019-05-25T16:38:06.802Z,12.70
2019-05-25T16:40:37.522Z,12.90
2019-05-25T16:43:07.981Z,13.68
2019-05-25T16:45:38.352Z,12.40
2019-05-25T16:48:08.818Z,12.90
2019-05-25T16:50:39.313Z,13.20
2019-05-25T16:53:09.698Z,11.40
2019-05-25T16:55:40.128Z,11.43
2019-05-25T16:58:10.493Z,10.88
2019-05-25T17:00:41.343Z,10.32
2019-05-25T17:03:26.912Z,12.13
2019-05-25T17:05:43.772Z,11.55
2019-05-25T17:08:14.133Z,10.78
2019-05-25T17:10:44.508Z,10.90
2019-05-25T17:13:14.928Z,11.20
2019-05-25T17:15:45.306Z,11.05
2019-05-25T17:18:15.717Z,13.70
2019-05-25T17:20:46.161Z,17.00
2019-05-25T17:23:16.526Z,18.55
2019-05-25T17:25:46.988Z,18.87
2019-05-25T17:28:17.348Z,20.02
2019-05-25T17:30:48.662Z,19.73
2019-05-25T17:33:19.093Z,21.50
2019-05-25T17:35:49.505Z,20.37
2019-05-25T17:38:20.209Z,20.62
2019-05-25T17:40:50.567Z,21.17
2019-05-25T17:43:21.004Z,19.45
2019-05-25T17:45:51.375Z,18.12
2019-05-25T17:48:21.800Z,16.77
2019-05-25T17:50:52.184Z,15.53
2019-05-25T17:53:23.455Z,16.25
2019-05-25T17:55:54.144Z,16.42
2019-05-25T17:58:24.549Z,16.67
2019-05-25T18:00:54.968Z,15.80
2019-05-25T18:03:25.408Z,16.10
2019-05-25T18:05:55.767Z,15.78
2019-05-25T18:08:26.301Z,16.23
2019-05-25T18:10:56.772Z,15.85
2019-05-25T18:13:29.117Z,17.05
2019-05-25T18:15:59.303Z,17.35
2019-05-25T18:18:29.725Z,13.48
2019-05-25T18:21:00.084Z,13.40
2019-05-25T18:23:30.468Z,13.93
2019-05-25T18:26:00.901Z,13.35
2019-05-25T18:28:31.381Z,13.78
2019-05-25T18:31:01.731Z,13.30
2019-05-25T18:33:32.179Z,14.03
2019-05-25T18:36:02.539Z,14.78
2019-05-25T18:38:32.895Z,15.20
2019-05-25T18:41:03.409Z,14.28
2019-05-25T18:43:33.816Z,14.55
2019-05-25T18:46:06.461Z,15.60
2019-05-25T18:48:36.918Z,10.83
2019-05-25T18:51:07.428Z,13.48
2019-05-25T18:53:37.783Z,14.23
2019-05-25T18:56:08.229Z,14.63
2019-05-25T18:58:38.710Z,15.88
2019-05-25T19:01:09.218Z,15.28
2019-05-25T19:03:39.629Z,13.05
2019-05-25T19:06:10.008Z,13.32
2019-05-25T19:08:40.427Z,12.45
2019-05-25T19:11:10.810Z,13.58
2019-05-25T19:13:41.217Z,11.60
2019-05-25T19:16:11.577Z,12.30
2019-05-25T19:18:42.040Z,12.68
2019-05-25T19:21:12.415Z,11.63
2019-05-25T19:23:42.865Z,12.78
2019-05-25T19:26:13.369Z,12.78
2019-05-25T19:28:43.816Z,12.03
2019-05-25T19:31:14.218Z,12.75
2019-05-25T19:33:44.631Z,15.20
2019-05-25T19:36:15.071Z,19.32
2019-05-25T19:38:45.510Z,19.80
2019-05-25T19:41:15.953Z,20.02
2019-05-25T19:43:46.384Z,19.65
2019-05-25T19:46:16.826Z,19.57
2019-05-25T19:48:47.275Z,17.52
2019-05-25T19:51:17.692Z,17.82
2019-05-25T19:53:48.068Z,17.82
2019-05-25T19:56:18.597Z,18.67
2019-05-25T19:58:49.010Z,15.20
2019-05-25T20:01:19.432Z,15.28
2019-05-25T20:03:49.809Z,13.65
2019-05-25T20:06:20.234Z,13.00
2019-05-25T20:08:50.627Z,15.32
2019-05-25T20:11:21.038Z,16.45
2019-05-25T20:13:51.419Z,16.07
2019-05-25T20:16:24.966Z,13.72
2019-05-25T20:18:53.866Z,12.30
2019-05-25T20:21:24.307Z,11.73
2019-05-25T20:23:54.669Z,11.85
2019-05-25T20:26:26.096Z,11.50
2019-05-25T20:28:56.476Z,10.70
2019-05-25T20:31:26.891Z,10.15
2019-05-25T20:33:57.253Z,10.08
2019-05-25T20:36:27.673Z,9.45
2019-05-25T20:38:58.026Z,9.95
2019-05-25T20:41:28.465Z,9.83
2019-05-25T20:43:59.718Z,9.93
2019-05-25T20:46:30.316Z,10.03
2019-05-25T20:49:01.748Z,9.65
2019-05-25T20:51:32.149Z,10.50
2019-05-25T20:54:02.517Z,10.82
2019-05-25T20:56:32.936Z,10.58
2019-05-25T20:59:03.305Z,10.58
2019-05-25T21:01:33.756Z,10.38
2019-05-25T21:04:04.282Z,10.63
2019-05-25T21:06:34.726Z,12.00
2019-05-25T21:09:07.557Z,11.65
2019-05-25T21:11:37.980Z,11.57
2019-05-25T21:14:08.372Z,12.45
2019-05-25T21:16:38.793Z,11.40
2019-05-25T21:19:09.234Z,13.10
2019-05-25T21:21:39.609Z,12.85
2019-05-25T21:24:10.052Z,12.07
2019-05-25T21:26:40.410Z,12.93
2019-05-25T21:29:10.860Z,13.03
2019-05-25T21:31:41.233Z,11.63
2019-05-25T21:34:11.667Z,11.43
2019-05-25T21:36:43.317Z,11.68
2019-05-25T21:39:15.161Z,12.30
2019-05-25T21:41:45.529Z,11.88
2019-05-25T21:44:15.972Z,11.28
2019-05-25T21:46:46.321Z,11.73
2019-05-25T21:49:17.106Z,10.80
2019-05-25T21:51:47.471Z,11.53
2019-05-25T21:54:17.913Z,11.28
2019-05-25T21:56:48.321Z,11.85
2019-05-25T21:59:18.816Z,11.70
2019-05-25T22:01:49.463Z,11.53
2019-05-25T22:04:19.819Z,12.13
2019-05-25T22:06:50.343Z,10.68
2019-05-25T22:09:20.720Z,10.98
2019-05-25T22:11:51.302Z,12.65
2019-05-25T22:14:21.689Z,12.20
2019-05-25T22:16:52.103Z,12.18
2019-05-25T22:19:22.463Z,12.18
2019-05-25T22:21:53.094Z,12.15
2019-05-25T22:24:23.466Z,12.15
2019-05-25T22:26:53.901Z,12.00
2019-05-25T22:29:24.248Z,11.95
2019-05-25T22:31:56.001Z,11.93
2019-05-25T22:34:26.373Z,12.53
2019-05-25T22:36:56.810Z,11.95
2019-05-25T22:39:27.228Z,12.75
2019-05-25T22:41:57.589Z,12.28
2019-05-25T22:44:29.399Z,12.78
2019-05-25T22:46:59.862Z,13.93
2019-05-25T22:49:30.544Z,13.20
2019-05-25T22:52:00.921Z,13.13
2019-05-25T22:54:31.353Z,13.75
2019-05-25T22:57:01.778Z,14.43
2019-05-25T22:59:32.213Z,14.63
2019-05-25T23:02:02.578Z,14.98
2019-05-25T23:04:33.016Z,15.40
2019-05-25T23:07:03.381Z,15.45
2019-05-25T23:09:33.807Z,15.90
2019-05-25T23:12:04.175Z,17.10
2019-05-25T23:14:34.590Z,17.17
2019-05-25T23:17:05.500Z,18.23
2019-05-25T23:19:35.894Z,18.15
2019-05-25T23:22:06.306Z,17.65
2019-05-25T23:24:36.959Z,17.90
2019-05-25T23:27:07.401Z,18.55
2019-05-25T23:29:37.789Z,19.67
2019-05-25T23:32:09.314Z,18.92
2019-05-25T23:34:39.699Z,19.45
2019-05-25T23:37:14.733Z,19.77
2019-05-25T23:39:43.496Z,19.65
2019-05-25T23:42:13.871Z,20.92
2019-05-25T23:44:44.296Z,21.27
2019-05-25T23:47:14.772Z,21.68
2019-05-25T23:49:45.205Z,22.95
2019-05-25T23:52:15.779Z,24.20
2019-05-25T23:54:46.210Z,23.50
2019-05-25T23:57:16.675Z,24.47
2019-05-25T23:59:47.097Z,24.87
